createdAt,value
2022-12-18T00:01:21.690Z,57.83
2022-12-18T00:03:49.288Z,62.95
2022-12-18T00:06:17.864Z,76.88
2022-12-18T00:08:45.791Z,62.83
2022-12-18T00:11:15.796Z,67.25
2022-12-18T00:13:43.535Z,75.82
2022-12-18T00:16:13.246Z,71.20
2022-12-18T00:18:42.525Z,67.88
2022-12-18T00:21:11.999Z,68.20
2022-12-18T00:23:40.019Z,75.43
2022-12-18T00:26:11.143Z,63.10
2022-12-18T00:28:40.233Z,61.70
2022-12-18T00:31:10.292Z,56.85
2022-12-18T00:33:50.016Z,59.58
2022-12-18T00:36:31.551Z,56.45
2022-12-18T00:39:05.203Z,55.08
2022-12-18T00:41:50.823Z,61.58
2022-12-18T00:44:19.616Z,58.15
2022-12-18T00:46:47.963Z,60.35
2022-12-18T00:49:16.173Z,62.80
2022-12-18T00:51:44.702Z,63.75
2022-12-18T00:54:12.457Z,61.90
2022-12-18T00:56:48.377Z,64.40
2022-12-18T00:59:17.482Z,68.03
2022-12-18T01:01:44.942Z,69.93
2022-12-18T01:04:11.875Z,66.43
2022-12-18T01:06:40.438Z,69.95
2022-12-18T01:09:07.558Z,73.45
2022-12-18T01:11:34.800Z,68.43
2022-12-18T01:14:02.044Z,69.50
2022-12-18T01:18:56.526Z,67.15
2022-12-18T01:21:24.600Z,69.00
2022-12-18T01:23:56.586Z,64.53
2022-12-18T01:26:24.182Z,73.00
2022-12-18T01:31:31.054Z,65.32
2022-12-18T01:33:58.502Z,62.40
2022-12-18T01:36:29.491Z,74.28
2022-12-18T01:38:56.795Z,65.18
2022-12-18T01:41:27.757Z,71.53
2022-12-18T01:43:59.040Z,64.43
2022-12-18T01:46:27.434Z,67.00
2022-12-18T01:49:02.680Z,64.78
2022-12-18T01:51:34.285Z,69.55
2022-12-18T01:54:04.247Z,65.53
2022-12-18T01:56:31.020Z,70.97
2022-12-18T01:59:06.914Z,73.53
2022-12-18T02:01:34.222Z,66.47
2022-12-18T02:04:21.802Z,67.63
2022-12-18T02:06:56.338Z,72.88
2022-12-18T02:09:33.287Z,69.60
2022-12-18T02:12:20.545Z,68.57
2022-12-18T02:15:12.766Z,65.22
2022-12-18T02:17:43.073Z,68.97
2022-12-18T02:20:48.816Z,66.90
2022-12-18T02:23:49.780Z,68.45
2022-12-18T02:26:36.827Z,61.88
2022-12-18T02:29:11.306Z,64.47
2022-12-18T02:31:44.450Z,66.72
2022-12-18T02:34:14.500Z,77.47
2022-12-18T02:36:45.749Z,72.97
2022-12-18T02:39:14.914Z,70.72
2022-12-18T02:41:42.320Z,69.60
2022-12-18T02:44:11.889Z,71.22
2022-12-18T02:46:40.558Z,68.00
2022-12-18T02:49:35.012Z,73.97
2022-12-18T02:52:23.536Z,68.40
2022-12-18T02:55:10.580Z,68.65
2022-12-18T02:57:49.995Z,71.35
2022-12-18T03:00:27.744Z,85.43
2022-12-18T03:03:17.363Z,67.20
2022-12-18T03:05:51.044Z,68.85
2022-12-18T03:08:25.162Z,72.07
2022-12-18T03:11:04.799Z,68.55
2022-12-18T03:13:40.813Z,75.75
2022-12-18T03:16:13.156Z,67.22
2022-12-18T03:18:54.624Z,68.78
2022-12-18T03:21:30.923Z,69.70
2022-12-18T03:23:58.219Z,75.50
2022-12-18T03:26:27.673Z,72.03
2022-12-18T03:29:05.841Z,72.03
2022-12-18T03:34:10.158Z,71.20
2022-12-18T03:36:37.275Z,73.63
2022-12-18T03:39:04.193Z,78.10
2022-12-18T03:41:46.548Z,66.10
2022-12-18T03:44:27.856Z,69.03
2022-12-18T03:47:04.735Z,68.07
2022-12-18T03:49:50.426Z,68.30
2022-12-18T03:52:45.863Z,71.28
2022-12-18T03:55:13.607Z,68.95
2022-12-18T03:57:41.964Z,64.65
2022-12-18T04:00:14.855Z,69.40
2022-12-18T04:02:46.871Z,69.60
2022-12-18T04:05:15.634Z,66.13
2022-12-18T04:07:43.138Z,66.68
2022-12-18T04:10:12.842Z,68.65
2022-12-18T04:12:39.896Z,61.92
2022-12-18T04:15:09.212Z,62.17
2022-12-18T04:17:36.032Z,57.30
2022-12-18T04:20:03.030Z,64.60
2022-12-18T04:22:31.071Z,61.38
2022-12-18T04:24:58.223Z,54.65
2022-12-18T04:27:25.130Z,56.95
2022-12-18T04:29:53.218Z,57.70
2022-12-18T04:32:20.174Z,61.78
2022-12-18T04:34:47.166Z,58.70
2022-12-18T04:37:15.082Z,58.95
2022-12-18T04:39:41.855Z,61.15
2022-12-18T04:42:08.638Z,54.65
2022-12-18T04:44:35.596Z,68.63
2022-12-18T04:47:02.495Z,64.40
2022-12-18T04:49:30.470Z,58.97
2022-12-18T04:51:58.423Z,58.97
2022-12-18T04:54:25.452Z,59.00
2022-12-18T04:56:52.447Z,57.80
2022-12-18T05:01:50.533Z,58.42
2022-12-18T05:04:17.602Z,59.20
2022-12-18T05:06:44.990Z,55.55
2022-12-18T05:09:12.158Z,64.13
2022-12-18T05:11:39.240Z,60.58
2022-12-18T05:14:06.181Z,59.05
2022-12-18T05:16:33.151Z,59.33
2022-12-18T05:19:00.023Z,60.33
2022-12-18T05:21:26.880Z,61.08
2022-12-18T05:23:53.677Z,65.68
2022-12-18T05:26:20.508Z,59.27
2022-12-18T05:28:47.679Z,65.85
2022-12-18T05:31:15.142Z,58.88
2022-12-18T05:36:12.316Z,60.00
2022-12-18T05:38:40.281Z,51.58
2022-12-18T05:41:07.828Z,54.80
2022-12-18T05:46:14.591Z,47.95
2022-12-18T05:48:44.591Z,53.13
2022-12-18T05:51:16.170Z,56.42
2022-12-18T05:53:44.752Z,56.13
2022-12-18T05:56:15.586Z,51.58
2022-12-18T05:58:42.924Z,57.45
2022-12-18T06:01:22.200Z,60.22
2022-12-18T06:03:49.535Z,54.22
2022-12-18T06:06:23.216Z,59.78
2022-12-18T06:08:50.746Z,55.78
2022-12-18T06:13:47.653Z,52.70
2022-12-18T06:16:17.484Z,53.63
2022-12-18T06:18:44.347Z,59.92
2022-12-18T06:21:12.763Z,53.28
2022-12-18T06:23:39.976Z,51.47
2022-12-18T06:26:12.296Z,52.58
2022-12-18T06:28:39.147Z,57.90
2022-12-18T06:31:07.265Z,54.72
2022-12-18T06:33:35.269Z,55.35
2022-12-18T06:36:14.160Z,62.65
2022-12-18T06:38:43.496Z,50.97
2022-12-18T06:41:22.115Z,59.58
2022-12-18T06:43:49.228Z,58.58
2022-12-18T06:46:16.432Z,60.67
2022-12-18T06:48:43.558Z,60.85
2022-12-18T06:51:11.504Z,55.35
2022-12-18T06:53:38.813Z,56.75
2022-12-18T06:56:10.558Z,59.55
2022-12-18T06:58:41.276Z,62.42
2022-12-18T07:01:13.503Z,62.53
2022-12-18T07:03:43.986Z,63.17
2022-12-18T07:06:19.983Z,59.33
2022-12-18T07:08:47.677Z,51.92
2022-12-18T07:11:15.089Z,53.58
2022-12-18T07:13:42.526Z,56.22
2022-12-18T07:16:22.375Z,54.00
2022-12-18T07:18:53.250Z,56.72
2022-12-18T07:21:21.217Z,64.13
2022-12-18T07:23:49.718Z,60.58
2022-12-18T07:26:20.822Z,61.85
2022-12-18T07:28:48.413Z,55.92
2022-12-18T07:33:46.935Z,42.92
2022-12-18T07:36:14.498Z,52.05
2022-12-18T07:41:11.638Z,47.22
2022-12-18T07:43:39.529Z,48.53
2022-12-18T07:46:07.593Z,50.00
2022-12-18T07:48:35.546Z,44.92
2022-12-18T07:51:05.180Z,42.00
2022-12-18T07:53:32.985Z,45.80
2022-12-18T07:56:26.698Z,47.63
2022-12-18T07:58:54.808Z,43.50
2022-12-18T08:01:25.529Z,48.80
2022-12-18T08:03:56.223Z,42.33
2022-12-18T08:06:25.079Z,45.25
2022-12-18T08:08:57.054Z,42.88
2022-12-18T08:11:25.945Z,47.03
2022-12-18T08:13:54.487Z,48.83
2022-12-18T08:16:27.589Z,47.85
2022-12-18T08:19:01.756Z,47.17
2022-12-18T08:21:34.854Z,48.40
2022-12-18T08:24:03.002Z,47.17
2022-12-18T08:26:33.152Z,42.53
2022-12-18T08:29:02.791Z,40.47
2022-12-18T08:31:31.629Z,41.72
2022-12-18T08:34:00.032Z,42.22
2022-12-18T08:36:27.621Z,41.22
2022-12-18T08:41:22.128Z,42.80
2022-12-18T08:44:12.691Z,38.08
2022-12-18T08:46:42.019Z,53.50
2022-12-18T08:49:10.443Z,50.05
2022-12-18T08:51:37.337Z,52.65
2022-12-18T08:54:06.724Z,42.72
2022-12-18T08:56:41.691Z,68.63
2022-12-18T08:59:13.140Z,77.90
2022-12-18T09:01:46.435Z,46.13
2022-12-18T09:04:14.993Z,40.30
2022-12-18T09:06:41.922Z,33.50
2022-12-18T09:09:10.304Z,36.22
2022-12-18T09:11:37.225Z,40.42
2022-12-18T09:14:10.587Z,41.95
2022-12-18T09:16:39.697Z,40.85
2022-12-18T09:19:13.590Z,33.75
2022-12-18T09:21:46.158Z,33.47
2022-12-18T09:24:16.104Z,36.83
2022-12-18T09:26:43.665Z,32.38
2022-12-18T09:29:16.411Z,32.53
2022-12-18T09:31:54.435Z,29.25
2022-12-18T09:34:22.951Z,32.08
2022-12-18T09:36:49.842Z,39.95
2022-12-18T09:39:17.457Z,28.02
2022-12-18T09:41:54.556Z,36.80
2022-12-18T09:44:47.130Z,30.35
2022-12-18T09:47:14.179Z,29.30
2022-12-18T09:49:45.215Z,32.60
2022-12-18T09:52:37.013Z,33.42
2022-12-18T09:55:18.613Z,33.65
2022-12-18T09:57:57.986Z,37.17
2022-12-18T10:00:26.474Z,38.53
2022-12-18T10:03:12.655Z,37.45
2022-12-18T10:06:07.530Z,35.70
2022-12-18T10:08:47.983Z,35.35
2022-12-18T10:11:55.711Z,32.42
2022-12-18T10:14:42.471Z,27.85
2022-12-18T10:17:42.380Z,34.72
2022-12-18T10:20:20.991Z,34.15
2022-12-18T10:22:58.076Z,34.88
2022-12-18T10:25:39.174Z,32.70
2022-12-18T10:28:16.343Z,30.88
2022-12-18T10:30:44.878Z,32.35
2022-12-18T10:33:20.029Z,29.88
2022-12-18T10:35:51.447Z,32.25
2022-12-18T10:38:18.200Z,37.45
2022-12-18T10:41:05.521Z,34.50
2022-12-18T10:43:37.992Z,30.55
2022-12-18T10:46:19.035Z,34.08
2022-12-18T10:48:53.257Z,35.15
2022-12-18T10:51:31.741Z,31.55
2022-12-18T10:54:23.757Z,29.63
2022-12-18T10:56:50.909Z,31.83
2022-12-18T10:59:26.667Z,32.53
2022-12-18T11:02:02.902Z,32.03
2022-12-18T11:04:32.625Z,28.70
2022-12-18T11:07:02.973Z,33.10
2022-12-18T11:09:35.761Z,29.50
2022-12-18T11:12:07.456Z,31.25
2022-12-18T11:14:47.685Z,32.50
2022-12-18T11:17:31.276Z,33.70
2022-12-18T11:20:00.843Z,30.13
2022-12-18T11:22:41.200Z,33.33
2022-12-18T11:25:33.295Z,29.80
2022-12-18T11:28:26.008Z,32.25
2022-12-18T11:31:19.301Z,30.73
2022-12-18T11:36:50.680Z,24.90
2022-12-18T11:39:42.156Z,30.65
2022-12-18T11:42:29.493Z,33.88
2022-12-18T11:45:21.471Z,33.28
2022-12-18T11:48:01.037Z,34.15
2022-12-18T11:50:49.649Z,33.95
2022-12-18T11:53:17.015Z,29.55
2022-12-18T11:56:08.407Z,29.98
2022-12-18T11:58:48.885Z,28.08
2022-12-18T12:01:37.601Z,27.23
2022-12-18T12:04:26.199Z,31.73
2022-12-18T12:07:13.883Z,25.73
2022-12-18T12:10:13.196Z,24.75
2022-12-18T12:12:50.366Z,27.75
2022-12-18T12:15:31.225Z,24.08
2022-12-18T12:18:05.777Z,25.88
2022-12-18T12:21:03.081Z,26.70
2022-12-18T12:24:09.212Z,28.92
2022-12-18T12:27:12.282Z,23.85
2022-12-18T12:29:58.168Z,23.17
2022-12-18T12:32:32.903Z,26.25
2022-12-18T12:35:35.436Z,27.67
2022-12-18T12:38:11.155Z,34.28
2022-12-18T12:41:03.449Z,29.50
2022-12-18T12:43:50.485Z,29.50
2022-12-18T12:46:25.110Z,29.40
2022-12-18T12:48:57.440Z,28.48
2022-12-18T12:51:37.359Z,29.23
2022-12-18T12:54:15.425Z,30.17
2022-12-18T12:56:59.077Z,28.52
2022-12-18T12:59:48.043Z,36.85
2022-12-18T13:02:49.544Z,33.47
2022-12-18T13:05:25.754Z,26.08
2022-12-18T13:08:23.601Z,29.33
2022-12-18T13:11:11.383Z,25.88
2022-12-18T13:13:58.155Z,28.23
2022-12-18T13:16:28.684Z,30.13
2022-12-18T13:19:00.251Z,28.30
2022-12-18T13:21:31.807Z,28.48
2022-12-18T13:24:23.631Z,31.85
2022-12-18T13:26:50.497Z,30.80
2022-12-18T13:29:46.605Z,30.83
2022-12-18T13:32:24.092Z,28.23
2022-12-18T13:35:31.378Z,36.03
2022-12-18T13:37:58.312Z,32.03
2022-12-18T13:40:44.315Z,31.33
2022-12-18T13:43:27.471Z,31.27
2022-12-18T13:46:03.876Z,33.50
2022-12-18T13:48:35.196Z,32.33
2022-12-18T13:51:06.400Z,35.50
2022-12-18T13:54:00.205Z,32.45
2022-12-18T13:56:35.724Z,34.70
2022-12-18T13:59:25.724Z,34.50
2022-12-18T14:02:14.698Z,33.65
2022-12-18T14:04:47.519Z,35.90
2022-12-18T14:07:21.150Z,32.92
2022-12-18T14:10:18.894Z,36.53
2022-12-18T14:13:00.371Z,36.30
2022-12-18T14:15:45.288Z,36.47
2022-12-18T14:18:25.839Z,35.47
2022-12-18T14:20:59.605Z,36.50
2022-12-18T14:23:40.483Z,36.28
2022-12-18T14:26:34.125Z,38.15
2022-12-18T14:29:21.628Z,34.40
2022-12-18T14:32:18.899Z,34.63
2022-12-18T14:34:55.092Z,31.77
2022-12-18T14:37:25.631Z,32.95
2022-12-18T14:40:04.441Z,37.17
2022-12-18T14:42:42.049Z,34.20
2022-12-18T14:45:43.265Z,34.42
2022-12-18T14:48:15.420Z,35.63
2022-12-18T14:50:46.896Z,36.38
2022-12-18T14:53:29.591Z,39.28
2022-12-18T14:55:56.539Z,49.00
2022-12-18T14:58:23.498Z,40.75
2022-12-18T15:00:50.708Z,42.05
2022-12-18T15:03:21.823Z,42.08
2022-12-18T15:05:49.910Z,40.42
2022-12-18T15:08:37.118Z,41.83
2022-12-18T15:11:08.875Z,43.22
2022-12-18T15:13:39.012Z,40.72
2022-12-18T15:16:14.078Z,39.28
2022-12-18T15:18:49.193Z,45.72
2022-12-18T15:21:20.127Z,40.80
2022-12-18T15:23:51.937Z,45.30
2022-12-18T15:26:22.338Z,46.38
2022-12-18T15:28:53.599Z,39.75
2022-12-18T15:31:31.842Z,50.38
2022-12-18T15:39:04.587Z,43.65
2022-12-18T15:41:37.535Z,53.13
2022-12-18T15:44:26.589Z,54.13
2022-12-18T15:46:53.683Z,55.25
2022-12-18T15:49:20.727Z,51.33
2022-12-18T15:51:52.993Z,52.28
2022-12-18T15:54:41.849Z,57.55
2022-12-18T15:59:54.168Z,42.40
2022-12-18T16:02:24.785Z,45.80
2022-12-18T16:04:53.298Z,50.10
2022-12-18T16:07:23.029Z,48.42
2022-12-18T16:09:52.028Z,52.55
2022-12-18T16:12:24.801Z,45.40
2022-12-18T16:14:52.698Z,50.70
2022-12-18T16:17:19.551Z,49.67
2022-12-18T16:19:46.727Z,43.95
2022-12-18T16:22:25.676Z,54.83
2022-12-18T16:24:54.616Z,50.90
2022-12-18T16:27:22.437Z,50.40
2022-12-18T16:29:49.738Z,52.08
2022-12-18T16:32:19.895Z,49.38
2022-12-18T16:34:47.652Z,49.25
2022-12-18T16:37:16.777Z,43.80
2022-12-18T16:39:43.929Z,40.30
2022-12-18T16:42:20.733Z,46.35
2022-12-18T16:44:50.574Z,44.67
2022-12-18T16:47:18.370Z,41.33
2022-12-18T16:49:46.551Z,45.75
2022-12-18T16:52:14.601Z,43.60
2022-12-18T16:54:42.555Z,46.05
2022-12-18T16:57:16.706Z,39.38
2022-12-18T16:59:43.911Z,50.85
2022-12-18T17:02:29.720Z,47.92
2022-12-18T17:04:58.440Z,47.88
2022-12-18T17:07:26.404Z,53.28
2022-12-18T17:09:54.258Z,49.25
2022-12-18T17:12:23.108Z,43.03
2022-12-18T17:14:50.475Z,49.50
2022-12-18T17:19:51.371Z,67.38
2022-12-18T17:22:18.269Z,54.30
2022-12-18T17:24:48.019Z,50.60
2022-12-18T17:27:15.486Z,53.97
2022-12-18T17:29:47.273Z,47.08
2022-12-18T17:32:15.578Z,48.20
2022-12-18T17:34:42.432Z,44.33
2022-12-18T17:37:09.532Z,46.92
2022-12-18T17:39:36.602Z,51.65
2022-12-18T17:42:03.945Z,48.13
2022-12-18T17:44:32.215Z,47.75
2022-12-18T17:46:59.114Z,42.65
2022-12-18T17:49:26.018Z,48.55
2022-12-18T17:51:53.852Z,48.67
2022-12-18T17:54:20.949Z,33.58
2022-12-18T17:56:47.904Z,33.67
2022-12-18T17:59:16.065Z,25.42
2022-12-18T18:01:45.232Z,34.85
2022-12-18T18:04:13.142Z,34.92
2022-12-18T18:06:41.470Z,29.08
2022-12-18T18:09:13.397Z,34.58
2022-12-18T18:12:03.133Z,26.02
2022-12-18T18:14:30.369Z,29.10
2022-12-18T18:17:04.141Z,23.70
2022-12-18T18:19:32.089Z,26.20
2022-12-18T18:24:26.216Z,20.40
2022-12-18T18:26:56.496Z,22.20
2022-12-18T18:29:25.808Z,28.52
2022-12-18T18:31:53.908Z,22.63
2022-12-18T18:34:25.816Z,29.38
2022-12-18T18:36:53.090Z,29.33
2022-12-18T18:39:21.148Z,37.35
2022-12-18T18:41:48.730Z,40.95
2022-12-18T18:44:17.932Z,34.67
2022-12-18T18:46:45.487Z,41.28
2022-12-18T18:51:42.989Z,40.85
2022-12-18T18:54:10.673Z,35.83
2022-12-18T18:57:04.146Z,37.92
2022-12-18T18:59:31.750Z,43.88
2022-12-18T19:02:00.720Z,37.85
2022-12-18T19:04:32.403Z,32.40
2022-12-18T19:06:59.449Z,38.60
2022-12-18T19:09:26.431Z,36.97
2022-12-18T19:12:26.397Z,39.65
2022-12-18T19:14:54.510Z,49.45
2022-12-18T19:17:29.524Z,46.60
2022-12-18T19:19:56.727Z,36.83
2022-12-18T19:22:24.524Z,35.78
2022-12-18T19:24:51.361Z,41.47
2022-12-18T19:27:18.211Z,41.20
2022-12-18T19:29:45.006Z,42.03
2022-12-18T19:32:13.078Z,47.53
2022-12-18T19:34:40.250Z,46.30
2022-12-18T19:37:07.432Z,48.00
2022-12-18T19:39:34.675Z,38.08
2022-12-18T19:42:01.529Z,43.70
2022-12-18T19:44:28.344Z,37.63
2022-12-18T19:46:55.191Z,48.40
2022-12-18T19:49:22.169Z,42.65
2022-12-18T19:51:50.429Z,39.83
2022-12-18T19:54:18.080Z,34.70
2022-12-18T19:59:13.300Z,34.03
2022-12-18T20:04:07.329Z,38.55
2022-12-18T20:06:54.454Z,38.53
2022-12-18T20:09:23.739Z,39.05
2022-12-18T20:11:51.991Z,43.33
2022-12-18T20:14:22.607Z,37.60
2022-12-18T20:16:53.770Z,47.53
2022-12-18T20:19:21.617Z,41.90
2022-12-18T20:21:49.612Z,45.30
2022-12-18T20:24:18.599Z,49.42
2022-12-18T20:26:45.577Z,46.33
2022-12-18T20:29:13.541Z,44.58
2022-12-18T20:31:40.725Z,48.03
2022-12-18T20:34:12.683Z,46.72
2022-12-18T20:36:42.108Z,48.60
2022-12-18T20:39:10.837Z,49.90
2022-12-18T20:41:39.248Z,49.22
2022-12-18T20:44:21.716Z,59.80
2022-12-18T20:47:01.577Z,58.22
2022-12-18T20:49:32.603Z,54.17
2022-12-18T20:52:03.137Z,67.43
2022-12-18T20:54:34.526Z,60.53
2022-12-18T20:57:01.340Z,69.97
2022-12-18T20:59:28.198Z,74.00
2022-12-18T21:01:55.526Z,76.20
2022-12-18T21:04:23.357Z,72.15
2022-12-18T21:06:55.616Z,73.95
2022-12-18T21:09:31.582Z,75.85
2022-12-18T21:12:35.074Z,69.97
2022-12-18T21:15:10.590Z,67.97
2022-12-18T21:17:44.709Z,73.10
2022-12-18T21:20:17.521Z,69.80
2022-12-18T21:22:45.041Z,70.03
2022-12-18T21:25:12.960Z,75.72
2022-12-18T21:27:39.724Z,70.40
2022-12-18T21:30:08.160Z,73.90
2022-12-18T21:32:35.073Z,67.57
2022-12-18T21:35:03.068Z,69.85
2022-12-18T21:37:29.897Z,64.97
2022-12-18T21:39:56.904Z,64.68
2022-12-18T21:42:47.111Z,67.15
2022-12-18T21:45:13.930Z,62.40
2022-12-18T21:47:40.682Z,63.65
2022-12-18T21:50:07.842Z,65.13
2022-12-18T21:52:34.681Z,69.32
2022-12-18T21:55:08.385Z,64.88
2022-12-18T21:57:38.239Z,60.38
2022-12-18T22:00:06.327Z,65.60
2022-12-18T22:02:33.251Z,60.40
2022-12-18T22:05:00.143Z,57.53
2022-12-18T22:07:28.972Z,58.15
2022-12-18T22:09:55.786Z,61.38
2022-12-18T22:12:43.618Z,60.60
2022-12-18T22:17:47.048Z,57.92
2022-12-18T22:20:13.915Z,64.95
2022-12-18T22:22:40.781Z,58.42
2022-12-18T22:25:08.068Z,57.55
2022-12-18T22:27:34.834Z,53.28
2022-12-18T22:30:04.994Z,62.20
2022-12-18T22:32:36.164Z,65.90
2022-12-18T22:35:10.381Z,57.80
2022-12-18T22:37:41.099Z,55.95
2022-12-18T22:40:10.346Z,55.92
2022-12-18T22:42:40.964Z,57.00
2022-12-18T22:45:08.233Z,56.17
2022-12-18T22:47:34.933Z,49.70
2022-12-18T22:50:01.779Z,64.13
2022-12-18T22:52:28.822Z,61.00
2022-12-18T22:54:55.711Z,60.45
2022-12-18T22:57:24.810Z,65.47
2022-12-18T22:59:51.848Z,52.85
2022-12-18T23:02:19.544Z,57.78
2022-12-18T23:04:47.463Z,57.83
2022-12-18T23:07:14.438Z,55.42
2022-12-18T23:09:41.292Z,57.38
2022-12-18T23:12:13.995Z,56.30
2022-12-18T23:14:40.956Z,55.22
2022-12-18T23:17:07.824Z,51.15
2022-12-18T23:19:34.715Z,64.60
2022-12-18T23:22:03.501Z,66.80
2022-12-18T23:24:33.184Z,55.10
2022-12-18T23:27:00.153Z,56.13
2022-12-18T23:29:27.071Z,60.20
2022-12-18T23:31:57.135Z,62.15
2022-12-18T23:34:28.123Z,58.15
2022-12-18T23:36:56.214Z,60.58
2022-12-18T23:39:29.899Z,59.60
2022-12-18T23:42:00.239Z,54.33
2022-12-18T23:44:27.627Z,59.22
2022-12-18T23:46:57.601Z,58.75
2022-12-18T23:49:24.498Z,55.05
2022-12-18T23:51:54.862Z,60.95
2022-12-18T23:54:29.316Z,54.95
2022-12-18T23:57:00.710Z,63.53
2022-12-18T23:59:27.634Z,54.92
